Time;durP1;ratioP1;P1;durP2;ratioP2;P2;SDS_P1;SDS_P2;PMS_P1;PMS_P2;Temp;Humidity;BMP_temperature;BMP_pressure;BME280_temperature;BME280_humidity;BME280_pressure;Samples;Min_cycle;Max_cycle;Signal;HPM_P1;HPM_P2
2022/11/14 00:00:37;;;;;;;16.02;8.15;;;;;;;;;;7393460;19;19995;-89
2022/11/14 00:03:04;;;;;;;14.05;7.70;;;;;;;;;;7392935;19;20005;-90
2022/11/14 00:05:29;;;;;;;14.80;7.97;;;;;;;;;;7394581;19;20003;-87
2022/11/14 00:07:55;;;;;;;15.30;8.15;;;;;;;;;;7392317;19;20013;-89
2022/11/14 00:10:20;;;;;;;14.13;8.13;;;;;;;;;;7392708;19;20015;-88
2022/11/14 00:12:46;;;;;;;15.27;7.95;;;;;;;;;;7392953;19;20354;-88
2022/11/14 00:15:12;;;;;;;12.32;7.80;;;;;;;;;;7391805;19;20006;-87
2022/11/14 00:17:37;;;;;;;13.57;8.30;;;;;;;;;;7393781;19;20103;-88
2022/11/14 00:20:04;;;;;;;15.93;7.88;;;;;;;;;;7394594;19;20034;-87
2022/11/14 00:22:29;;;;;;;13.25;8.63;;;;;;;;;;7387914;19;19998;-88
2022/11/14 00:24:55;;;;;;;14.27;7.78;;;;;;;;;;7391137;19;20481;-88
2022/11/14 00:27:20;;;;;;;12.93;8.15;;;;;;;;;;7391873;19;19995;-88
2022/11/14 00:29:46;;;;;;;13.18;7.65;;;;;;;;;;7391881;19;19990;-89
2022/11/14 00:32:11;;;;;;;13.88;8.55;;;;;;;;;;7388571;19;20074;-89
2022/11/14 00:34:36;;;;;;;13.00;8.75;;;;;;;;;;7391761;19;20043;-90
2022/11/14 00:37:02;;;;;;;17.02;9.65;;;;;;;;;;7390611;19;20103;-87
2022/11/14 00:39:27;;;;;;;19.27;10.27;;;;;;;;;;7389960;19;20460;-89
2022/11/14 00:41:53;;;;;;;46.00;10.40;;;;;;;;;;7388889;19;20002;-89
2022/11/14 00:44:18;;;;;;;35.15;10.15;;;;;;;;;;7388652;19;20674;-88
2022/11/14 00:46:43;;;;;;;23.88;11.68;;;;;;;;;;7392955;19;20465;-88
2022/11/14 00:49:09;;;;;;;18.17;10.98;;;;;;;;;;7392195;19;20508;-89
2022/11/14 00:51:34;;;;;;;20.42;10.80;;;;;;;;;;7392257;19;19995;-88
2022/11/14 00:54:00;;;;;;;17.45;10.30;;;;;;;;;;7391651;19;19994;-89
2022/11/14 00:56:25;;;;;;;17.20;11.02;;;;;;;;;;7391200;19;20002;-88
2022/11/14 00:58:51;;;;;;;16.80;10.25;;;;;;;;;;7392472;19;20009;-89
2022/11/14 01:01:16;;;;;;;20.20;11.13;;;;;;;;;;7391827;19;20465;-87
2022/11/14 01:03:42;;;;;;;21.55;11.30;;;;;;;;;;7390199;19;19987;-89
2022/11/14 01:06:09;;;;;;;26.45;12.45;;;;;;;;;;7392388;19;19999;-87
2022/11/14 01:08:35;;;;;;;55.95;14.00;;;;;;;;;;7394285;19;20021;-89
2022/11/14 01:11:00;;;;;;;42.35;13.75;;;;;;;;;;7391657;19;19991;-88
2022/11/14 01:13:30;;;;;;;41.10;14.57;;;;;;;;;;7389337;19;20097;-88
2022/11/14 01:15:59;;;;;;;28.57;12.37;;;;;;;;;;7391482;19;20002;-89
2022/11/14 01:18:25;;;;;;;42.40;15.43;;;;;;;;;;7391208;19;20244;-89
2022/11/14 01:20:50;;;;;;;32.67;14.07;;;;;;;;;;7392884;19;19995;-88
2022/11/14 01:23:16;;;;;;;30.92;15.40;;;;;;;;;;7388496;19;20002;-88
2022/11/14 01:25:42;;;;;;;44.53;13.55;;;;;;;;;;7390300;19;19995;-87
2022/11/14 01:28:11;;;;;;;48.35;15.10;;;;;;;;;;7392010;19;20063;-88
2022/11/14 01:30:37;;;;;;;83.82;17.08;;;;;;;;;;7396758;19;20019;-87
2022/11/14 01:33:03;;;;;;;78.63;17.73;;;;;;;;;;7405640;19;19995;-88
2022/11/14 01:35:30;;;;;;;96.05;18.45;;;;;;;;;;7412360;19;19995;-88
2022/11/14 01:37:55;;;;;;;104.65;18.75;;;;;;;;;;7417447;19;20016;-88
2022/11/14 01:40:21;;;;;;;146.30;20.15;;;;;;;;;;7419507;19;19991;-88
2022/11/14 01:43:28;;;;;;;91.75;19.92;;;;;;;;;;7412168;19;19995;-88
2022/11/14 01:46:04;;;;;;;62.92;18.88;;;;;;;;;;7398447;19;20012;-87
2022/11/14 01:48:38;;;;;;;94.32;18.45;;;;;;;;;;7397435;19;19998;-89
2022/11/14 01:51:13;;;;;;;103.63;19.35;;;;;;;;;;7396599;19;19994;-88
2022/11/14 01:53:40;;;;;;;139.93;19.45;;;;;;;;;;7394909;19;19990;-88
2022/11/14 01:56:07;;;;;;;136.55;20.30;;;;;;;;;;7402596;19;20455;-89
2022/11/14 01:58:35;;;;;;;140.57;19.77;;;;;;;;;;7407099;19;19991;-89
2022/11/14 02:01:01;;;;;;;129.13;20.50;;;;;;;;;;7407107;19;20003;-90
2022/11/14 02:03:27;;;;;;;196.80;21.58;;;;;;;;;;7397379;19;19990;-88
2022/11/14 02:05:53;;;;;;;118.85;20.23;;;;;;;;;;7396790;19;20007;-88
2022/11/14 02:08:19;;;;;;;111.60;18.85;;;;;;;;;;7397341;19;19998;-89
2022/11/14 02:10:45;;;;;;;143.35;20.88;;;;;;;;;;7399254;19;20027;-88
2022/11/14 02:13:10;;;;;;;153.00;21.88;;;;;;;;;;7394272;19;19994;-88
2022/11/14 02:15:36;;;;;;;173.15;20.95;;;;;;;;;;7396541;19;19998;-89
2022/11/14 02:18:01;;;;;;;178.27;23.40;;;;;;;;;;7395994;19;20018;-88
2022/11/14 02:20:31;;;;;;;92.50;18.67;;;;;;;;;;7396328;19;20005;-89
2022/11/14 02:22:57;;;;;;;232.48;22.25;;;;;;;;;;7393794;19;20471;-89
2022/11/14 02:25:23;;;;;;;147.10;19.65;;;;;;;;;;7395908;19;20070;-87
2022/11/14 02:27:50;;;;;;;128.30;20.80;;;;;;;;;;7396271;19;20031;-86
2022/11/14 02:30:20;;;;;;;97.43;18.83;;;;;;;;;;7395500;19;20010;-86
2022/11/14 02:32:45;;;;;;;123.45;21.63;;;;;;;;;;7394059;19;20009;-87
2022/11/14 02:35:11;;;;;;;128.23;17.20;;;;;;;;;;7396074;19;19995;-90
2022/11/14 02:37:37;;;;;;;111.03;18.23;;;;;;;;;;7395161;19;20006;-89
2022/11/14 02:40:03;;;;;;;135.23;19.30;;;;;;;;;;7395499;19;20070;-89
2022/11/14 02:42:28;;;;;;;122.25;19.00;;;;;;;;;;7394023;19;20008;-88
2022/11/14 02:44:53;;;;;;;75.82;17.92;;;;;;;;;;7397706;19;19994;-89
2022/11/14 02:47:19;;;;;;;71.35;19.65;;;;;;;;;;7397514;19;19999;-91
2022/11/14 02:49:44;;;;;;;140.32;20.55;;;;;;;;;;7399547;19;20372;-90
2022/11/14 02:52:09;;;;;;;189.73;20.27;;;;;;;;;;7401150;19;20022;-89
2022/11/14 02:54:35;;;;;;;145.20;20.38;;;;;;;;;;7417743;19;20020;-91
2022/11/14 02:57:00;;;;;;;135.18;19.63;;;;;;;;;;7427093;19;20016;-89
2022/11/14 02:59:25;;;;;;;154.38;20.92;;;;;;;;;;7426333;19;19987;-89
2022/11/14 03:01:51;;;;;;;214.93;22.65;;;;;;;;;;7423693;19;20015;-87
2022/11/14 03:04:16;;;;;;;89.82;20.85;;;;;;;;;;7425522;19;19999;-88
2022/11/14 03:06:41;;;;;;;100.03;18.48;;;;;;;;;;7423952;19;19998;-89
2022/11/14 03:09:07;;;;;;;92.32;19.00;;;;;;;;;;7416067;19;19991;-88
2022/11/14 03:11:32;;;;;;;53.72;18.27;;;;;;;;;;7418748;19;20002;-88
2022/11/14 03:14:00;;;;;;;51.03;17.10;;;;;;;;;;7422714;19;20500;-88
2022/11/14 03:16:26;;;;;;;50.50;16.27;;;;;;;;;;7408107;19;20065;-87
2022/11/14 03:18:51;;;;;;;50.22;17.35;;;;;;;;;;7407377;19;19994;-89
2022/11/14 03:21:19;;;;;;;48.78;17.20;;;;;;;;;;7404143;19;20012;-89
2022/11/14 03:23:44;;;;;;;51.33;17.63;;;;;;;;;;7397820;19;19987;-89
2022/11/14 03:26:11;;;;;;;46.00;17.42;;;;;;;;;;7403472;19;20340;-89
2022/11/14 03:28:37;;;;;;;53.67;16.92;;;;;;;;;;7400847;19;20001;-89
2022/11/14 03:31:04;;;;;;;51.60;17.55;;;;;;;;;;7396359;19;19994;-88
2022/11/14 03:33:30;;;;;;;53.28;17.15;;;;;;;;;;7393406;19;20446;-88
2022/11/14 03:35:55;;;;;;;47.97;17.33;;;;;;;;;;7397249;19;20002;-88
2022/11/14 03:38:21;;;;;;;42.22;16.17;;;;;;;;;;7394665;19;20353;-88
2022/11/14 03:40:48;;;;;;;41.80;16.50;;;;;;;;;;7394183;19;19994;-89
2022/11/14 03:43:13;;;;;;;43.65;16.27;;;;;;;;;;7393055;19;20005;-89
2022/11/14 03:45:39;;;;;;;50.60;17.25;;;;;;;;;;7395905;19;20337;-89
2022/11/14 03:48:05;;;;;;;55.08;17.30;;;;;;;;;;7396045;19;20026;-88
2022/11/14 03:50:30;;;;;;;62.50;16.67;;;;;;;;;;7396426;19;19991;-88
2022/11/14 03:52:56;;;;;;;44.17;17.42;;;;;;;;;;7391957;19;20023;-89
2022/11/14 03:55:21;;;;;;;46.53;17.15;;;;;;;;;;7398881;19;19991;-88
2022/11/14 03:57:46;;;;;;;37.50;16.23;;;;;;;;;;7397735;19;19990;-87
2022/11/14 04:00:18;;;;;;;40.58;16.50;;;;;;;;;;7394807;19;19998;-87
2022/11/14 04:02:44;;;;;;;37.47;16.27;;;;;;;;;;7393190;19;20520;-89
2022/11/14 04:05:09;;;;;;;43.72;16.45;;;;;;;;;;7393785;19;19994;-88
2022/11/14 04:07:35;;;;;;;38.85;15.82;;;;;;;;;;7390348;19;19994;-89
2022/11/14 04:10:00;;;;;;;38.42;15.68;;;;;;;;;;7392665;19;20004;-87
2022/11/14 04:12:25;;;;;;;38.90;15.77;;;;;;;;;;7392249;19;20390;-88
2022/11/14 04:14:51;;;;;;;32.30;14.52;;;;;;;;;;7392462;19;20003;-89
2022/11/14 04:17:16;;;;;;;36.28;16.98;;;;;;;;;;7392398;19;20015;-87
2022/11/14 04:19:41;;;;;;;33.05;14.80;;;;;;;;;;7393136;19;19995;-89
2022/11/14 04:22:07;;;;;;;34.85;16.45;;;;;;;;;;7390896;19;19994;-89
2022/11/14 04:24:32;;;;;;;34.95;15.25;;;;;;;;;;7391737;19;20025;-88
2022/11/14 04:26:57;;;;;;;34.38;15.48;;;;;;;;;;7391252;19;20006;-88
2022/11/14 04:29:23;;;;;;;33.47;15.25;;;;;;;;;;7391448;19;19995;-90
2022/11/14 04:31:48;;;;;;;30.20;14.45;;;;;;;;;;7390645;19;20002;-87
2022/11/14 04:34:13;;;;;;;33.38;14.57;;;;;;;;;;7391135;19;20467;-88
2022/11/14 04:36:39;;;;;;;31.80;14.60;;;;;;;;;;7391881;19;19995;-89
2022/11/14 04:39:04;;;;;;;36.53;15.70;;;;;;;;;;7392288;19;20004;-86
2022/11/14 04:41:30;;;;;;;31.25;14.88;;;;;;;;;;7392622;19;19994;-88
2022/11/14 04:43:55;;;;;;;33.60;15.07;;;;;;;;;;7390936;19;19995;-88
2022/11/14 04:46:21;;;;;;;33.50;14.63;;;;;;;;;;7390374;19;20011;-88
2022/11/14 04:48:46;;;;;;;32.70;15.73;;;;;;;;;;7390912;19;20002;-87
2022/11/14 04:51:11;;;;;;;34.80;15.70;;;;;;;;;;7389926;19;20058;-86
2022/11/14 04:53:37;;;;;;;33.63;15.32;;;;;;;;;;7390571;19;20006;-88
2022/11/14 04:56:03;;;;;;;29.45;14.80;;;;;;;;;;7391931;19;20002;-88
2022/11/14 04:58:28;;;;;;;35.60;15.82;;;;;;;;;;7390813;19;20336;-87
2022/11/14 05:00:56;;;;;;;33.33;16.33;;;;;;;;;;7389362;19;19998;-87
2022/11/14 05:03:22;;;;;;;31.33;14.50;;;;;;;;;;7388181;19;20017;-86
2022/11/14 05:05:47;;;;;;;29.48;14.98;;;;;;;;;;7389492;19;20458;-89
2022/11/14 05:08:12;;;;;;;28.98;14.32;;;;;;;;;;7388646;19;19990;-88
2022/11/14 05:10:42;;;;;;;27.83;14.43;;;;;;;;;;7392303;19;19994;-87
2022/11/14 05:13:08;;;;;;;32.70;15.15;;;;;;;;;;7388589;19;20452;-87
2022/11/14 05:15:34;;;;;;;25.50;14.00;;;;;;;;;;7394059;19;20031;-87
2022/11/14 05:17:59;;;;;;;30.35;14.60;;;;;;;;;;7394520;19;20022;-88
2022/11/14 05:20:24;;;;;;;26.73;12.82;;;;;;;;;;7397440;19;19990;-87
2022/11/14 05:22:54;;;;;;;27.02;13.13;;;;;;;;;;7396144;19;20381;-87
2022/11/14 05:25:20;;;;;;;25.00;13.18;;;;;;;;;;7397272;19;20050;-88
2022/11/14 05:27:45;;;;;;;30.98;12.32;;;;;;;;;;7396325;19;19995;-89
2022/11/14 05:30:11;;;;;;;29.00;12.68;;;;;;;;;;7396971;19;20072;-89
2022/11/14 05:32:36;;;;;;;25.48;12.52;;;;;;;;;;7400182;19;20015;-87
2022/11/14 05:35:02;;;;;;;28.35;12.88;;;;;;;;;;7399221;19;20001;-88
2022/11/14 05:37:27;;;;;;;20.70;11.13;;;;;;;;;;7321963;19;20448;-86
2022/11/14 05:39:53;;;;;;;27.00;12.57;;;;;;;;;;7399931;19;20025;-87
2022/11/14 05:42:18;;;;;;;28.20;12.60;;;;;;;;;;7398327;19;20001;-88
2022/11/14 05:44:43;;;;;;;28.13;11.80;;;;;;;;;;7399907;19;19990;-87
2022/11/14 05:47:09;;;;;;;22.48;11.20;;;;;;;;;;7399841;19;19990;-86
2022/11/14 05:49:34;;;;;;;23.63;11.02;;;;;;;;;;7398376;19;19998;-86
2022/11/14 05:51:59;;;;;;;21.52;11.07;;;;;;;;;;7396684;19;20018;-86
2022/11/14 05:54:24;;;;;;;21.08;10.68;;;;;;;;;;7396628;19;20345;-87
2022/11/14 05:56:50;;;;;;;18.85;9.30;;;;;;;;;;7393323;19;20075;-85
2022/11/14 05:59:15;;;;;;;20.00;10.23;;;;;;;;;;7395651;19;20007;-89
2022/11/14 06:01:40;;;;;;;18.08;9.45;;;;;;;;;;7395360;19;20070;-89
2022/11/14 06:04:06;;;;;;;21.02;10.30;;;;;;;;;;7398320;19;19998;-89
2022/11/14 06:06:34;;;;;;;21.77;10.18;;;;;;;;;;7400126;19;19994;-89
2022/11/14 06:09:00;;;;;;;20.60;9.25;;;;;;;;;;7397764;19;20452;-87
2022/11/14 06:11:25;;;;;;;19.80;9.43;;;;;;;;;;7399569;19;19995;-90
2022/11/14 06:13:50;;;;;;;19.02;10.38;;;;;;;;;;7398747;19;20002;-87
2022/11/14 06:16:18;;;;;;;20.10;10.40;;;;;;;;;;7403522;19;19994;-87
2022/11/14 06:18:43;;;;;;;19.55;9.82;;;;;;;;;;7406926;19;20003;-87
2022/11/14 06:21:10;;;;;;;20.13;10.38;;;;;;;;;;7406076;19;20035;-87
2022/11/14 06:23:35;;;;;;;19.00;9.70;;;;;;;;;;7400173;19;20028;-90
2022/11/14 06:26:03;;;;;;;18.42;10.00;;;;;;;;;;7396845;19;19987;-91
2022/11/14 06:28:28;;;;;;;19.17;10.70;;;;;;;;;;7397767;19;19991;-90
2022/11/14 06:31:02;;;;;;;22.73;10.77;;;;;;;;;;7398458;19;20376;-90
2022/11/14 06:33:28;;;;;;;19.08;10.25;;;;;;;;;;7395650;19;20013;-90
2022/11/14 06:35:58;;;;;;;23.30;10.85;;;;;;;;;;7400085;19;20014;-92
2022/11/14 06:38:23;;;;;;;20.90;10.90;;;;;;;;;;7397656;19;20062;-90
2022/11/14 06:40:48;;;;;;;19.25;10.45;;;;;;;;;;7399007;19;20020;-92
2022/11/14 06:43:14;;;;;;;18.77;10.18;;;;;;;;;;7397116;19;20058;-92
2022/11/14 06:45:39;;;;;;;22.10;11.45;;;;;;;;;;7399166;19;20054;-90
2022/11/14 06:48:05;;;;;;;19.63;11.40;;;;;;;;;;7397313;19;20015;-90
2022/11/14 06:50:31;;;;;;;27.58;11.30;;;;;;;;;;7395865;19;20002;-92
2022/11/14 06:52:57;;;;;;;19.92;10.63;;;;;;;;;;7402088;19;20009;-92
2022/11/14 06:55:23;;;;;;;17.50;9.77;;;;;;;;;;7428071;19;20035;-94
2022/11/14 06:57:54;;;;;;;25.20;10.75;;;;;;;;;;7421693;19;19983;-92
2022/11/14 07:00:20;;;;;;;21.75;10.65;;;;;;;;;;7429201;19;20030;-91
2022/11/14 07:02:47;;;;;;;26.60;12.50;;;;;;;;;;7419039;19;19990;-90
2022/11/14 07:05:12;;;;;;;22.50;11.02;;;;;;;;;;7428574;19;19987;-91
2022/11/14 07:07:38;;;;;;;26.10;10.57;;;;;;;;;;7428816;19;19987;-92
2022/11/14 07:10:03;;;;;;;18.15;9.93;;;;;;;;;;7406827;19;19998;-91
2022/11/14 07:12:29;;;;;;;22.65;11.15;;;;;;;;;;7395843;19;20007;-93
2022/11/14 07:14:54;;;;;;;19.30;10.57;;;;;;;;;;7396364;19;20035;-92
2022/11/14 07:17:19;;;;;;;17.40;10.32;;;;;;;;;;7398679;19;20009;-92
2022/11/14 07:19:45;;;;;;;23.00;11.20;;;;;;;;;;7398563;19;19990;-93
2022/11/14 07:22:10;;;;;;;19.80;10.50;;;;;;;;;;7398569;19;19998;-91
2022/11/14 07:24:36;;;;;;;18.48;10.82;;;;;;;;;;7409036;19;20043;-93
2022/11/14 07:27:01;;;;;;;21.65;10.85;;;;;;;;;;7395490;19;20354;-93
2022/11/14 07:29:27;;;;;;;21.42;10.48;;;;;;;;;;7400928;19;19994;-93
2022/11/14 07:31:52;;;;;;;20.85;10.70;;;;;;;;;;7387751;19;20025;-75
2022/11/14 07:34:17;;;;;;;20.55;10.45;;;;;;;;;;7391234;19;20013;-76
2022/11/14 07:36:43;;;;;;;22.58;11.02;;;;;;;;;;7388332;19;20078;-77
2022/11/14 07:39:09;;;;;;;23.52;11.32;;;;;;;;;;7393836;19;20789;-78
2022/11/14 07:41:34;;;;;;;20.30;10.65;;;;;;;;;;7390687;19;20082;-77
2022/11/14 07:43:59;;;;;;;20.40;10.75;;;;;;;;;;7391092;19;19994;-79
2022/11/14 07:46:25;;;;;;;18.48;10.13;;;;;;;;;;7389499;19;20050;-77
2022/11/14 07:48:53;;;;;;;18.85;9.98;;;;;;;;;;7390223;19;20090;-78
2022/11/14 07:51:19;;;;;;;19.27;11.25;;;;;;;;;;7391255;19;19999;-77
2022/11/14 07:53:45;;;;;;;22.40;11.48;;;;;;;;;;7391444;19;19994;-81
2022/11/14 07:56:11;;;;;;;22.52;11.00;;;;;;;;;;7390010;19;20018;-82
2022/11/14 07:58:38;;;;;;;22.58;11.07;;;;;;;;;;7390830;19;20006;-83
2022/11/14 08:01:05;;;;;;;19.80;10.45;;;;;;;;;;7391623;19;19998;-81
2022/11/14 08:03:31;;;;;;;17.15;9.77;;;;;;;;;;7386721;19;20006;-82
2022/11/14 08:06:08;;;;;;;22.92;11.45;;;;;;;;;;7387727;19;19998;-81
2022/11/14 08:08:34;;;;;;;21.67;10.48;;;;;;;;;;7393494;19;20013;-79
2022/11/14 08:11:00;;;;;;;19.95;10.90;;;;;;;;;;7391887;19;20062;-86
2022/11/14 08:13:26;;;;;;;22.77;11.93;;;;;;;;;;7392401;19;20356;-88
2022/11/14 08:15:52;;;;;;;25.77;11.98;;;;;;;;;;7392039;19;20013;-82
2022/11/14 08:18:17;;;;;;;21.33;10.85;;;;;;;;;;7391865;19;20062;-80
2022/11/14 08:20:43;;;;;;;20.67;11.10;;;;;;;;;;7390624;19;20002;-80
2022/11/14 08:23:09;;;;;;;22.52;12.18;;;;;;;;;;7388290;19;20028;-81
2022/11/14 08:25:35;;;;;;;23.38;12.52;;;;;;;;;;7392009;19;20079;-83
2022/11/14 08:28:00;;;;;;;22.85;11.38;;;;;;;;;;7390331;19;19999;-80
2022/11/14 08:30:25;;;;;;;20.70;11.15;;;;;;;;;;7394782;19;20006;-83
2022/11/14 08:32:51;;;;;;;22.52;11.75;;;;;;;;;;7389777;19;20013;-84
2022/11/14 08:35:16;;;;;;;23.65;12.13;;;;;;;;;;7390940;19;20534;-84
2022/11/14 08:37:41;;;;;;;24.02;12.23;;;;;;;;;;7390819;19;20453;-91
2022/11/14 08:40:07;;;;;;;22.33;12.20;;;;;;;;;;7391574;19;20027;-86
2022/11/14 08:42:33;;;;;;;19.40;11.07;;;;;;;;;;7390714;19;19998;-87
2022/11/14 08:44:58;;;;;;;22.17;11.60;;;;;;;;;;7397008;19;20002;-88
2022/11/14 08:47:23;;;;;;;19.23;11.18;;;;;;;;;;7395971;19;20068;-85
2022/11/14 08:49:49;;;;;;;22.98;11.98;;;;;;;;;;7393175;19;19994;-82
2022/11/14 08:52:14;;;;;;;24.25;13.45;;;;;;;;;;7390581;19;20314;-86
2022/11/14 08:54:40;;;;;;;22.85;13.00;;;;;;;;;;7394409;19;19999;-80
2022/11/14 08:57:05;;;;;;;24.85;12.52;;;;;;;;;;7391696;19;20431;-78
2022/11/14 08:59:31;;;;;;;26.75;13.68;;;;;;;;;;7389945;19;20044;-80
2022/11/14 09:01:57;;;;;;;29.00;13.77;;;;;;;;;;7387667;19;20018;-81
2022/11/14 09:04:22;;;;;;;27.30;13.05;;;;;;;;;;7388856;19;19997;-83
2022/11/14 09:06:47;;;;;;;25.95;12.90;;;;;;;;;;7392274;19;20395;-85
2022/11/14 09:09:13;;;;;;;24.27;11.40;;;;;;;;;;7393072;19;20101;-82
2022/11/14 09:11:39;;;;;;;27.42;12.70;;;;;;;;;;7390431;19;20048;-83
2022/11/14 09:14:04;;;;;;;31.98;12.98;;;;;;;;;;7390558;19;20447;-81
2022/11/14 09:16:29;;;;;;;30.75;14.45;;;;;;;;;;7391840;19;20328;-85
2022/11/14 09:18:55;;;;;;;23.67;13.23;;;;;;;;;;7390546;19;20068;-78
2022/11/14 09:21:20;;;;;;;27.90;14.35;;;;;;;;;;7395307;19;20005;-87
2022/11/14 09:23:46;;;;;;;28.13;13.55;;;;;;;;;;7392199;19;20007;-87
2022/11/14 09:26:12;;;;;;;26.15;13.98;;;;;;;;;;7391351;19;19991;-81
2022/11/14 09:28:37;;;;;;;26.67;13.15;;;;;;;;;;7390536;19;20007;-84
2022/11/14 09:31:11;;;;;;;30.10;14.02;;;;;;;;;;7389592;19;19990;-78
2022/11/14 09:33:37;;;;;;;29.80;13.52;;;;;;;;;;7386313;19;20113;-79
2022/11/14 09:36:05;;;;;;;28.08;11.95;;;;;;;;;;7387790;19;20463;-80
2022/11/14 09:38:31;;;;;;;24.15;13.18;;;;;;;;;;7387265;19;20017;-90
2022/11/14 09:41:09;;;;;;;31.00;14.18;;;;;;;;;;7402339;19;19999;-90
2022/11/14 09:43:38;;;;;;;35.70;12.15;;;;;;;;;;7392600;19;20082;-86
2022/11/14 09:46:13;;;;;;;23.77;12.93;;;;;;;;;;7388085;19;20035;-85
2022/11/14 09:48:38;;;;;;;31.52;12.48;;;;;;;;;;7396280;19;20002;-86
2022/11/14 09:51:14;;;;;;;30.30;14.18;;;;;;;;;;7390329;19;20003;-85
2022/11/14 09:53:50;;;;;;;24.55;11.68;;;;;;;;;;7387907;19;20002;-85
2022/11/14 09:56:20;;;;;;;25.05;11.63;;;;;;;;;;7391519;19;20017;-91
2022/11/14 09:58:45;;;;;;;22.63;11.07;;;;;;;;;;7390521;19;20003;-89
2022/11/14 10:01:34;;;;;;;23.63;12.57;;;;;;;;;;7387280;19;20016;-89
2022/11/14 10:04:19;;;;;;;21.70;12.13;;;;;;;;;;7392227;19;20002;-90
2022/11/14 10:06:56;;;;;;;21.98;11.45;;;;;;;;;;7398272;19;20078;-88
2022/11/14 10:09:58;;;;;;;20.27;11.23;;;;;;;;;;7394425;19;20020;-83
2022/11/14 10:12:40;;;;;;;20.25;10.75;;;;;;;;;;7394315;19;20002;-79
2022/11/14 10:15:27;;;;;;;22.65;12.00;;;;;;;;;;7395944;19;20027;-81
2022/11/14 10:18:14;;;;;;;25.65;12.07;;;;;;;;;;7396110;19;20405;-84
2022/11/14 10:20:45;;;;;;;21.52;11.65;;;;;;;;;;7395047;19;19999;-90
2022/11/14 10:24:00;;;;;;;22.48;11.07;;;;;;;;;;7393608;19;20110;-89
2022/11/14 10:26:30;;;;;;;24.05;11.63;;;;;;;;;;7393076;19;20018;-90
2022/11/14 10:29:22;;;;;;;23.63;10.27;;;;;;;;;;7397763;19;20002;-81
2022/11/14 10:31:54;;;;;;;21.50;11.52;;;;;;;;;;7394439;19;19999;-80
2022/11/14 10:34:30;;;;;;;19.15;11.38;;;;;;;;;;7395778;19;19999;-80
2022/11/14 10:37:14;;;;;;;20.23;10.45;;;;;;;;;;7393159;19;20018;-79
2022/11/14 10:39:53;;;;;;;21.20;11.75;;;;;;;;;;7392343;19;20496;-78
2022/11/14 10:42:28;;;;;;;19.67;10.30;;;;;;;;;;7394736;19;20006;-79
2022/11/14 10:45:06;;;;;;;16.77;9.57;;;;;;;;;;7394522;19;20464;-79
2022/11/14 10:47:38;;;;;;;16.05;10.02;;;;;;;;;;7396355;19;20005;-78
2022/11/14 10:50:16;;;;;;;20.98;10.88;;;;;;;;;;7394208;19;20467;-77
2022/11/14 10:52:44;;;;;;;16.70;10.02;;;;;;;;;;7393105;19;20021;-77
2022/11/14 10:55:17;;;;;;;20.23;10.43;;;;;;;;;;7393854;19;20339;-79
2022/11/14 10:57:46;;;;;;;17.25;8.80;;;;;;;;;;7396590;19;20002;-77
2022/11/14 11:00:14;;;;;;;20.88;9.75;;;;;;;;;;7393617;19;20019;-78
2022/11/14 11:02:49;;;;;;;16.30;9.05;;;;;;;;;;7396476;19;20013;-94
2022/11/14 11:05:17;;;;;;;15.70;9.40;;;;;;;;;;7398469;19;20006;-87
2022/11/14 11:13:30;;;;;;;14.80;8.90;;;;;;;;;;7411926;19;19993;-82
2022/11/14 11:15:58;;;;;;;16.83;9.52;;;;;;;;;;7419021;19;20032;-91
2022/11/14 11:18:30;;;;;;;15.35;8.45;;;;;;;;;;7423466;19;19990;-84
2022/11/14 11:21:03;;;;;;;17.30;9.13;;;;;;;;;;7425066;19;20029;-79
2022/11/14 11:23:29;;;;;;;14.52;8.57;;;;;;;;;;7406836;19;20024;-79
2022/11/14 11:26:15;;;;;;;15.30;8.70;;;;;;;;;;7393330;19;19994;-78
2022/11/14 11:28:40;;;;;;;14.98;8.98;;;;;;;;;;7394566;19;20532;-77
2022/11/14 11:31:09;;;;;;;16.65;8.95;;;;;;;;;;7393566;19;20020;-77
2022/11/14 11:33:38;;;;;;;14.93;8.75;;;;;;;;;;7389623;19;20031;-81
2022/11/14 11:36:06;;;;;;;14.50;8.52;;;;;;;;;;7390511;19;20030;-80
2022/11/14 11:38:32;;;;;;;13.23;7.78;;;;;;;;;;7391520;19;20304;-80
2022/11/14 11:41:05;;;;;;;13.90;8.38;;;;;;;;;;7393373;19;20068;-79
2022/11/14 11:44:13;;;;;;;15.13;7.93;;;;;;;;;;7391991;19;19999;-80
2022/11/14 11:46:46;;;;;;;17.83;8.45;;;;;;;;;;7282625;19;19999;-80
2022/11/14 11:49:26;;;;;;;14.65;8.10;;;;;;;;;;7389843;19;20023;-78
2022/11/14 11:51:54;;;;;;;14.80;8.65;;;;;;;;;;7389657;19;19999;-79
2022/11/14 11:54:23;;;;;;;11.77;7.65;;;;;;;;;;7390697;19;20002;-78
2022/11/14 11:56:57;;;;;;;11.88;6.72;;;;;;;;;;7390540;19;20009;-78
2022/11/14 11:59:44;;;;;;;14.25;7.38;;;;;;;;;;7391999;19;20005;-79
2022/11/14 12:02:23;;;;;;;14.60;8.00;;;;;;;;;;7391722;19;19999;-79
2022/11/14 12:04:50;;;;;;;17.13;8.00;;;;;;;;;;7391061;19;20021;-79
2022/11/14 12:07:19;;;;;;;13.90;7.95;;;;;;;;;;7393173;19;20002;-79
2022/11/14 12:09:44;;;;;;;13.57;7.65;;;;;;;;;;7392651;19;19994;-79
2022/11/14 12:12:21;;;;;;;12.40;7.68;;;;;;;;;;7389029;19;20617;-79
2022/11/14 12:14:47;;;;;;;12.15;7.22;;;;;;;;;;7391962;19;19999;-79
2022/11/14 12:17:34;;;;;;;12.82;7.35;;;;;;;;;;7391220;19;20013;-79
2022/11/14 12:20:25;;;;;;;12.65;7.28;;;;;;;;;;7390155;19;20009;-79
2022/11/14 12:23:09;;;;;;;15.68;8.32;;;;;;;;;;7389971;19;20003;-79
2022/11/14 12:25:40;;;;;;;12.82;7.55;;;;;;;;;;7392593;19;20475;-79
2022/11/14 12:28:57;;;;;;;13.90;8.07;;;;;;;;;;7388751;19;20461;-78
2022/11/14 12:31:26;;;;;;;13.13;7.38;;;;;;;;;;7383729;19;20013;-78
2022/11/14 12:33:59;;;;;;;13.13;7.43;;;;;;;;;;7384683;19;20020;-79
2022/11/14 12:36:33;;;;;;;13.05;7.50;;;;;;;;;;7387916;19;19994;-78
2022/11/14 12:39:00;;;;;;;15.18;7.88;;;;;;;;;;7392578;19;20003;-78
2022/11/14 12:41:31;;;;;;;13.70;7.60;;;;;;;;;;7391527;19;20353;-78
2022/11/14 12:44:29;;;;;;;13.23;7.60;;;;;;;;;;7387704;19;19995;-78
2022/11/14 12:47:04;;;;;;;14.23;7.32;;;;;;;;;;7390922;19;19995;-78
2022/11/14 12:49:56;;;;;;;14.50;7.22;;;;;;;;;;7392223;19;20148;-78
2022/11/14 12:52:41;;;;;;;16.80;7.72;;;;;;;;;;7385789;19;20106;-78
2022/11/14 12:55:24;;;;;;;13.82;7.93;;;;;;;;;;7388967;19;20006;-78
2022/11/14 12:58:08;;;;;;;13.07;7.15;;;;;;;;;;7387508;19;20022;-81
2022/11/14 13:00:59;;;;;;;14.02;7.45;;;;;;;;;;7391868;19;20025;-83
2022/11/14 13:03:31;;;;;;;;;;;;;;;;;;7388693;19;20468;-82
2022/11/14 13:05:56;;;;;;;;;;;;;;;;;;7392800;19;19974;-80
2022/11/14 13:08:46;;;;;;;13.97;7.13;;;;;;;;;;7388986;19;20291;-79
2022/11/14 13:23:26;;;;;;;13.15;7.25;;;;;;;;;;7386714;19;20005;-81
2022/11/14 13:26:10;;;;;;;12.48;7.50;;;;;;;;;;7391574;19;20030;-83
2022/11/14 13:28:51;;;;;;;12.95;7.10;;;;;;;;;;7391270;19;20002;-81
2022/11/14 13:31:21;;;;;;;11.90;6.85;;;;;;;;;;7390941;19;20015;-81
2022/11/14 13:33:52;;;;;;;13.88;6.90;;;;;;;;;;7393919;19;20006;-89
2022/11/14 13:36:29;;;;;;;12.20;7.07;;;;;;;;;;7391557;19;20014;-85
2022/11/14 13:39:10;;;;;;;10.70;6.47;;;;;;;;;;7394124;19;20003;-86
2022/11/14 13:41:50;;;;;;;13.20;6.88;;;;;;;;;;7401578;19;20021;-87
2022/11/14 13:44:18;;;;;;;13.40;7.55;;;;;;;;;;7395003;19;20006;-85
2022/11/14 13:47:05;;;;;;;13.70;6.65;;;;;;;;;;7397217;19;19995;-78
2022/11/14 13:49:52;;;;;;;13.70;7.75;;;;;;;;;;7397348;19;19999;-79
2022/11/14 13:52:18;;;;;;;12.13;7.15;;;;;;;;;;7394697;19;20002;-79
2022/11/14 13:54:48;;;;;;;13.88;7.82;;;;;;;;;;7397228;19;19990;-84
2022/11/14 13:57:28;;;;;;;14.18;7.78;;;;;;;;;;7403408;19;20063;-77
2022/11/14 14:00:12;;;;;;;12.68;7.68;;;;;;;;;;7394204;19;19995;-80
2022/11/14 14:03:18;;;;;;;13.73;7.32;;;;;;;;;;7394146;19;20372;-81
2022/11/14 14:06:18;;;;;;;12.82;7.03;;;;;;;;;;7374073;19;20006;-83
2022/11/14 14:08:51;;;;;;;13.23;7.53;;;;;;;;;;7395648;19;20460;-83
2022/11/14 14:11:31;;;;;;;13.73;7.43;;;;;;;;;;7394790;19;20005;-80
2022/11/14 14:14:22;;;;;;;13.02;7.43;;;;;;;;;;7395118;19;19990;-80
2022/11/14 14:17:41;;;;;;;12.87;7.47;;;;;;;;;;7395588;19;20011;-81
2022/11/14 14:20:34;;;;;;;17.63;8.63;;;;;;;;;;7391337;19;20003;-81
2022/11/14 14:23:36;;;;;;;13.38;7.70;;;;;;;;;;7392655;19;20029;-81
2022/11/14 14:26:16;;;;;;;16.10;7.82;;;;;;;;;;7395446;19;20394;-81
2022/11/14 14:29:09;;;;;;;12.32;7.22;;;;;;;;;;7395509;19;20003;-80
2022/11/14 14:31:37;;;;;;;13.18;7.10;;;;;;;;;;7395381;19;20520;-83
2022/11/14 14:34:28;;;;;;;14.20;7.45;;;;;;;;;;7394522;19;20054;-84
2022/11/14 14:36:56;;;;;;;13.13;7.50;;;;;;;;;;7394553;19;20333;-81
2022/11/14 14:39:24;;;;;;;16.27;7.97;;;;;;;;;;7395993;19;20058;-83
2022/11/14 14:41:51;;;;;;;13.05;7.93;;;;;;;;;;7394141;19;20026;-83
2022/11/14 14:44:47;;;;;;;15.13;8.23;;;;;;;;;;7391107;19;20323;-85
2022/11/14 14:47:15;;;;;;;15.85;8.00;;;;;;;;;;7392994;19;20441;-84
2022/11/14 14:49:42;;;;;;;15.57;8.35;;;;;;;;;;7397815;19;20075;-85
2022/11/14 14:52:34;;;;;;;14.30;8.07;;;;;;;;;;7391815;19;19999;-82
2022/11/14 14:55:01;;;;;;;15.23;7.93;;;;;;;;;;7394824;19;20096;-79